sensor_id;sensor_type;location;lat;lon;timestamp;pressure;altitude;pressure_sealevel;temperature;humidity
65190;BME280;51777;53.570;9.984;2023-06-22T00:01:49;101726.06;;;20.48;100.00
65190;BME280;51777;53.570;9.984;2023-06-22T00:04:14;101722.63;;;20.48;100.00
65190;BME280;51777;53.570;9.984;2023-06-22T00:06:40;101728.88;;;20.47;100.00
65190;BME280;51777;53.570;9.984;2023-06-22T00:09:05;101723.78;;;20.45;100.00
65190;BME280;51777;53.570;9.984;2023-06-22T00:11:32;101720.34;;;20.45;100.00
65190;BME280;51777;53.570;9.984;2023-06-22T00:13:59;101720.53;;;20.43;100.00
65190;BME280;51777;53.570;9.984;2023-06-22T00:16:24;101714.63;;;20.41;100.00
65190;BME280;51777;53.570;9.984;2023-06-22T00:18:50;101713.00;;;20.40;100.00
65190;BME280;51777;53.570;9.984;2023-06-22T00:21:15;101709.13;;;20.36;100.00
65190;BME280;51777;53.570;9.984;2023-06-22T00:23:40;101716.19;;;20.36;100.00
65190;BME280;51777;53.570;9.984;2023-06-22T00:26:06;101711.13;;;20.34;100.00
65190;BME280;51777;53.570;9.984;2023-06-22T00:28:33;101720.00;;;20.33;100.00
65190;BME280;51777;53.570;9.984;2023-06-22T00:30:59;101722.63;;;20.33;100.00
65190;BME280;51777;53.570;9.984;2023-06-22T00:33:26;101723.00;;;20.30;100.00
65190;BME280;51777;53.570;9.984;2023-06-22T00:35:51;101732.50;;;20.31;100.00
65190;BME280;51777;53.570;9.984;2023-06-22T00:38:17;101735.13;;;20.31;100.00
65190;BME280;51777;53.570;9.984;2023-06-22T00:40:43;101730.50;;;20.33;100.00
65190;BME280;51777;53.570;9.984;2023-06-22T00:43:08;101730.34;;;20.35;100.00
65190;BME280;51777;53.570;9.984;2023-06-22T00:45:34;101730.16;;;20.36;100.00
65190;BME280;51777;53.570;9.984;2023-06-22T00:47:59;101729.16;;;20.37;100.00
65190;BME280;51777;53.570;9.984;2023-06-22T00:50:27;101732.78;;;20.36;100.00
65190;BME280;51777;53.570;9.984;2023-06-22T00:52:57;101739.03;;;20.35;100.00
65190;BME280;51777;53.570;9.984;2023-06-22T00:55:24;101737.56;;;20.33;100.00
65190;BME280;51777;53.570;9.984;2023-06-22T00:57:51;101725.63;;;20.30;100.00
65190;BME280;51777;53.570;9.984;2023-06-22T01:00:21;101736.13;;;20.30;100.00
65190;BME280;51777;53.570;9.984;2023-06-22T01:02:52;101741.56;;;20.29;100.00
65190;BME280;51777;53.570;9.984;2023-06-22T01:05:19;101732.88;;;20.28;100.00
65190;BME280;51777;53.570;9.984;2023-06-22T01:10:57;101728.63;;;20.27;100.00
65190;BME280;51777;53.570;9.984;2023-06-22T01:16:28;101736.25;;;20.22;100.00
65190;BME280;51777;53.570;9.984;2023-06-22T01:18:56;101737.22;;;20.21;100.00
65190;BME280;51777;53.570;9.984;2023-06-22T01:21:23;101740.84;;;20.20;100.00
65190;BME280;51777;53.570;9.984;2023-06-22T01:24:14;101735.16;;;20.16;100.00
65190;BME280;51777;53.570;9.984;2023-06-22T01:27:09;101722.59;;;20.12;100.00
65190;BME280;51777;53.570;9.984;2023-06-22T01:29:39;101723.31;;;20.06;100.00
65190;BME280;51777;53.570;9.984;2023-06-22T01:32:06;101720.88;;;20.04;100.00
65190;BME280;51777;53.570;9.984;2023-06-22T01:34:32;101725.69;;;20.01;100.00
65190;BME280;51777;53.570;9.984;2023-06-22T01:36:59;101723.25;;;19.99;100.00
65190;BME280;51777;53.570;9.984;2023-06-22T01:39:27;101728.03;;;19.95;100.00
65190;BME280;51777;53.570;9.984;2023-06-22T01:41:53;101723.78;;;19.94;100.00
65190;BME280;51777;53.570;9.984;2023-06-22T01:44:19;101722.97;;;19.94;100.00
65190;BME280;51777;53.570;9.984;2023-06-22T01:46:45;101725.53;;;19.87;100.00
65190;BME280;51777;53.570;9.984;2023-06-22T01:49:11;101720.28;;;19.87;100.00
65190;BME280;51777;53.570;9.984;2023-06-22T01:51:37;101722.91;;;19.87;100.00
65190;BME280;51777;53.570;9.984;2023-06-22T01:54:03;101721.47;;;19.85;100.00
65190;BME280;51777;53.570;9.984;2023-06-22T01:56:28;101721.63;;;19.83;100.00
65190;BME280;51777;53.570;9.984;2023-06-22T01:59:03;101722.63;;;19.82;100.00
65190;BME280;51777;53.570;9.984;2023-06-22T02:01:35;101718.38;;;19.81;100.00
65190;BME280;51777;53.570;9.984;2023-06-22T02:04:08;101716.75;;;19.80;100.00
65190;BME280;51777;53.570;9.984;2023-06-22T02:06:37;101729.88;;;19.80;100.00
65190;BME280;51777;53.570;9.984;2023-06-22T02:09:08;101721.38;;;19.78;100.00
65190;BME280;51777;53.570;9.984;2023-06-22T02:11:36;101726.63;;;19.78;100.00
65190;BME280;51777;53.570;9.984;2023-06-22T02:14:02;101729.41;;;19.77;100.00
65190;BME280;51777;53.570;9.984;2023-06-22T02:16:28;101721.38;;;19.63;100.00
65190;BME280;51777;53.570;9.984;2023-06-22T02:18:56;101717.84;;;19.56;100.00
65190;BME280;51777;53.570;9.984;2023-06-22T02:21:23;101723.19;;;19.63;100.00
65190;BME280;51777;53.570;9.984;2023-06-22T02:23:48;101719.56;;;19.64;100.00
65190;BME280;51777;53.570;9.984;2023-06-22T02:26:16;101715.94;;;19.65;100.00
65190;BME280;51777;53.570;9.984;2023-06-22T02:28:42;101710.06;;;19.63;100.00
65190;BME280;51777;53.570;9.984;2023-06-22T02:31:07;101711.88;;;19.62;100.00
65190;BME280;51777;53.570;9.984;2023-06-22T02:33:33;101709.59;;;19.59;100.00
65190;BME280;51777;53.570;9.984;2023-06-22T02:35:58;101701.63;;;19.53;100.00
65190;BME280;51777;53.570;9.984;2023-06-22T02:38:23;101698.72;;;19.48;100.00
65190;BME280;51777;53.570;9.984;2023-06-22T02:40:50;101700.69;;;19.46;100.00
65190;BME280;51777;53.570;9.984;2023-06-22T02:43:15;101708.75;;;19.44;100.00
65190;BME280;51777;53.570;9.984;2023-06-22T02:45:40;101699.25;;;19.43;100.00
65190;BME280;51777;53.570;9.984;2023-06-22T02:48:06;101703.06;;;19.41;100.00
65190;BME280;51777;53.570;9.984;2023-06-22T02:50:31;101701.97;;;19.35;100.00
65190;BME280;51777;53.570;9.984;2023-06-22T02:52:57;101699.88;;;19.30;100.00
65190;BME280;51777;53.570;9.984;2023-06-22T02:55:23;101701.88;;;19.28;100.00
65190;BME280;51777;53.570;9.984;2023-06-22T02:57:48;101703.84;;;19.26;100.00
65190;BME280;51777;53.570;9.984;2023-06-22T03:00:18;101705.03;;;19.24;100.00
65190;BME280;51777;53.570;9.984;2023-06-22T03:02:45;101710.44;;;19.22;100.00
65190;BME280;51777;53.570;9.984;2023-06-22T03:05:11;101710.44;;;19.22;100.00
65190;BME280;51777;53.570;9.984;2023-06-22T03:07:42;101707.19;;;19.20;100.00
65190;BME280;51777;53.570;9.984;2023-06-22T03:10:11;101704.56;;;19.20;100.00
65190;BME280;51777;53.570;9.984;2023-06-22T03:12:37;101701.75;;;19.22;100.00
65190;BME280;51777;53.570;9.984;2023-06-22T03:15:09;101713.06;;;19.22;100.00
65190;BME280;51777;53.570;9.984;2023-06-22T03:17:36;101715.03;;;19.20;100.00
65190;BME280;51777;53.570;9.984;2023-06-22T03:20:03;101712.59;;;19.19;100.00
65190;BME280;51777;53.570;9.984;2023-06-22T03:22:39;101715.94;;;19.13;100.00
65190;BME280;51777;53.570;9.984;2023-06-22T03:25:05;101720.91;;;19.07;100.00
65190;BME280;51777;53.570;9.984;2023-06-22T03:27:38;101716.81;;;19.05;100.00
65190;BME280;51777;53.570;9.984;2023-06-22T03:30:05;101716.66;;;19.06;100.00
65190;BME280;51777;53.570;9.984;2023-06-22T03:32:31;101725.31;;;19.07;100.00
65190;BME280;51777;53.570;9.984;2023-06-22T03:34:56;101725.13;;;19.08;100.00
65190;BME280;51777;53.570;9.984;2023-06-22T03:37:27;101731.88;;;19.11;100.00
65190;BME280;51777;53.570;9.984;2023-06-22T03:39:53;101732.50;;;19.13;100.00
65190;BME280;51777;53.570;9.984;2023-06-22T03:42:18;101736.38;;;19.17;100.00
65190;BME280;51777;53.570;9.984;2023-06-22T03:44:43;101731.41;;;19.22;100.00
65190;BME280;51777;53.570;9.984;2023-06-22T03:47:09;101735.16;;;19.28;100.00
65190;BME280;51777;53.570;9.984;2023-06-22T03:49:35;101742.47;;;19.32;100.00
65190;BME280;51777;53.570;9.984;2023-06-22T03:52:01;101740.47;;;19.34;100.00
65190;BME280;51777;53.570;9.984;2023-06-22T03:54:28;101744.66;;;19.44;100.00
65190;BME280;51777;53.570;9.984;2023-06-22T03:56:54;101755.63;;;19.47;100.00
65190;BME280;51777;53.570;9.984;2023-06-22T03:59:19;101749.53;;;19.47;100.00
65190;BME280;51777;53.570;9.984;2023-06-22T04:01:45;101750.38;;;19.47;100.00
65190;BME280;51777;53.570;9.984;2023-06-22T04:04:11;101741.75;;;19.39;100.00
65190;BME280;51777;53.570;9.984;2023-06-22T04:06:37;101741.19;;;19.14;100.00
65190;BME280;51777;53.570;9.984;2023-06-22T04:09:03;101751.25;;;19.02;100.00
65190;BME280;51777;53.570;9.984;2023-06-22T04:11:28;101748.13;;;19.21;100.00
65190;BME280;51777;53.570;9.984;2023-06-22T04:13:54;101753.25;;;19.38;100.00
65190;BME280;51777;53.570;9.984;2023-06-22T04:16:19;101760.69;;;19.49;100.00
65190;BME280;51777;53.570;9.984;2023-06-22T04:18:44;101766.19;;;19.54;100.00
65190;BME280;51777;53.570;9.984;2023-06-22T04:21:10;101764.97;;;19.64;100.00
65190;BME280;51777;53.570;9.984;2023-06-22T04:23:35;101763.09;;;19.73;100.00
65190;BME280;51777;53.570;9.984;2023-06-22T04:26:01;101765.75;;;19.50;100.00
65190;BME280;51777;53.570;9.984;2023-06-22T04:28:26;101768.09;;;19.45;100.00
65190;BME280;51777;53.570;9.984;2023-06-22T04:30:52;101760.03;;;19.47;100.00
65190;BME280;51777;53.570;9.984;2023-06-22T04:33:17;101767.50;;;19.58;100.00
65190;BME280;51777;53.570;9.984;2023-06-22T04:35:45;101767.88;;;19.70;100.00
65190;BME280;51777;53.570;9.984;2023-06-22T04:38:12;101764.94;;;19.50;100.00
65190;BME280;51777;53.570;9.984;2023-06-22T04:40:39;101768.63;;;19.41;100.00
65190;BME280;51777;53.570;9.984;2023-06-22T04:43:04;101771.88;;;19.43;100.00
65190;BME280;51777;53.570;9.984;2023-06-22T04:45:31;101774.25;;;19.52;100.00
65190;BME280;51777;53.570;9.984;2023-06-22T04:47:57;101778.34;;;19.55;100.00
65190;BME280;51777;53.570;9.984;2023-06-22T04:50:23;101780.72;;;19.64;100.00
65190;BME280;51777;53.570;9.984;2023-06-22T04:52:49;101772.84;;;19.64;100.00
65190;BME280;51777;53.570;9.984;2023-06-22T04:55:14;101777.47;;;19.77;100.00
65190;BME280;51777;53.570;9.984;2023-06-22T04:57:48;101776.19;;;20.03;100.00
65190;BME280;51777;53.570;9.984;2023-06-22T05:00:23;101775.66;;;20.22;100.00
65190;BME280;51777;53.570;9.984;2023-06-22T05:02:49;101769.56;;;20.36;100.00
65190;BME280;51777;53.570;9.984;2023-06-22T05:05:14;101778.53;;;20.42;100.00
65190;BME280;51777;53.570;9.984;2023-06-22T05:07:45;101778.00;;;20.46;100.00
65190;BME280;51777;53.570;9.984;2023-06-22T05:10:13;101781.69;;;20.52;100.00
65190;BME280;51777;53.570;9.984;2023-06-22T05:12:39;101784.38;;;20.59;100.00
65190;BME280;51777;53.570;9.984;2023-06-22T05:15:06;101781.00;;;20.65;100.00
65190;BME280;51777;53.570;9.984;2023-06-22T05:17:32;101785.88;;;20.68;100.00
65190;BME280;51777;53.570;9.984;2023-06-22T05:19:57;101780.31;;;20.77;100.00
65190;BME280;51777;53.570;9.984;2023-06-22T05:22:23;101783.75;;;20.57;100.00
65190;BME280;51777;53.570;9.984;2023-06-22T05:24:48;101786.13;;;20.51;100.00
65190;BME280;51777;53.570;9.984;2023-06-22T05:27:14;101785.88;;;20.68;100.00
65190;BME280;51777;53.570;9.984;2023-06-22T05:29:40;101782.25;;;20.69;100.00
65190;BME280;51777;53.570;9.984;2023-06-22T05:32:05;101779.44;;;20.70;100.00
65190;BME280;51777;53.570;9.984;2023-06-22T05:34:32;101787.25;;;20.64;100.00
65190;BME280;51777;53.570;9.984;2023-06-22T05:36:57;101797.50;;;20.73;100.00
65190;BME280;51777;53.570;9.984;2023-06-22T05:39:24;101783.66;;;20.86;100.00
65190;BME280;51777;53.570;9.984;2023-06-22T05:41:50;101790.25;;;20.97;100.00
65190;BME280;51777;53.570;9.984;2023-06-22T05:44:16;101792.41;;;20.72;100.00
65190;BME280;51777;53.570;9.984;2023-06-22T05:46:43;101793.47;;;20.77;100.00
65190;BME280;51777;53.570;9.984;2023-06-22T05:49:12;101791.91;;;20.83;100.00
65190;BME280;51777;53.570;9.984;2023-06-22T05:51:38;101797.66;;;20.93;100.00
65190;BME280;51777;53.570;9.984;2023-06-22T05:54:04;101793.41;;;20.92;100.00
65190;BME280;51777;53.570;9.984;2023-06-22T05:56:29;101795.03;;;20.93;100.00
65190;BME280;51777;53.570;9.984;2023-06-22T05:58:54;101789.78;;;20.93;100.00
65190;BME280;51777;53.570;9.984;2023-06-22T06:01:20;101782.66;;;21.08;100.00
65190;BME280;51777;53.570;9.984;2023-06-22T06:03:45;101780.66;;;21.10;100.00
65190;BME280;51777;53.570;9.984;2023-06-22T06:06:11;101782.72;;;21.36;100.00
65190;BME280;51777;53.570;9.984;2023-06-22T06:08:38;101777.44;;;21.36;100.00
65190;BME280;51777;53.570;9.984;2023-06-22T06:11:03;101785.63;;;21.48;100.00
65190;BME280;51777;53.570;9.984;2023-06-22T06:13:29;101787.75;;;21.66;100.00
65190;BME280;51777;53.570;9.984;2023-06-22T06:15:54;101785.00;;;21.46;100.00
65190;BME280;51777;53.570;9.984;2023-06-22T06:18:22;101782.28;;;21.61;100.00
65190;BME280;51777;53.570;9.984;2023-06-22T06:20:55;101792.09;;;21.80;100.00
65190;BME280;51777;53.570;9.984;2023-06-22T06:23:23;101784.41;;;21.79;100.00
65190;BME280;51777;53.570;9.984;2023-06-22T06:25:49;101794.03;;;21.99;100.00
65190;BME280;51777;53.570;9.984;2023-06-22T06:28:14;101792.81;;;22.37;100.00
65190;BME280;51777;53.570;9.984;2023-06-22T06:30:39;101784.38;;;22.61;100.00
65190;BME280;51777;53.570;9.984;2023-06-22T06:33:06;101786.84;;;22.82;100.00
65190;BME280;51777;53.570;9.984;2023-06-22T06:35:33;101784.84;;;22.84;100.00
65190;BME280;51777;53.570;9.984;2023-06-22T06:37:59;101784.59;;;22.79;100.00
65190;BME280;51777;53.570;9.984;2023-06-22T06:40:24;101780.97;;;22.94;100.00
65190;BME280;51777;53.570;9.984;2023-06-22T06:42:50;101781.56;;;22.82;100.00
65190;BME280;51777;53.570;9.984;2023-06-22T06:45:18;101786.78;;;22.69;100.00
65190;BME280;51777;53.570;9.984;2023-06-22T06:47:44;101785.84;;;22.90;100.00
65190;BME280;51777;53.570;9.984;2023-06-22T06:50:11;101782.81;;;23.00;100.00
65190;BME280;51777;53.570;9.984;2023-06-22T06:52:36;101785.25;;;23.14;100.00
65190;BME280;51777;53.570;9.984;2023-06-22T06:55:02;101773.28;;;23.05;100.00
65190;BME280;51777;53.570;9.984;2023-06-22T06:57:29;101777.50;;;22.80;100.00
65190;BME280;51777;53.570;9.984;2023-06-22T06:59:58;101771.06;;;22.96;100.00
65190;BME280;51777;53.570;9.984;2023-06-22T07:02:24;101771.66;;;22.98;100.00
65190;BME280;51777;53.570;9.984;2023-06-22T07:04:49;101765.13;;;22.80;100.00
65190;BME280;51777;53.570;9.984;2023-06-22T07:07:16;101775.06;;;22.78;100.00
65190;BME280;51777;53.570;9.984;2023-06-22T07:09:41;101767.81;;;23.20;100.00
65190;BME280;51777;53.570;9.984;2023-06-22T07:12:07;101774.31;;;23.11;100.00
65190;BME280;51777;53.570;9.984;2023-06-22T07:14:32;101778.75;;;23.17;100.00
65190;BME280;51777;53.570;9.984;2023-06-22T07:16:58;101773.09;;;23.20;100.00
65190;BME280;51777;53.570;9.984;2023-06-22T07:19:25;101775.09;;;23.71;100.00
65190;BME280;51777;53.570;9.984;2023-06-22T07:21:51;101772.25;;;23.72;100.00
65190;BME280;51777;53.570;9.984;2023-06-22T07:24:16;101776.41;;;24.07;100.00
65190;BME280;51777;53.570;9.984;2023-06-22T07:26:41;101774.09;;;24.23;100.00
65190;BME280;51777;53.570;9.984;2023-06-22T07:29:11;101777.47;;;24.44;100.00
65190;BME280;51777;53.570;9.984;2023-06-22T07:31:37;101782.03;;;24.62;100.00
65190;BME280;51777;53.570;9.984;2023-06-22T07:34:02;101783.56;;;24.76;100.00
65190;BME280;51777;53.570;9.984;2023-06-22T07:36:29;101784.03;;;24.66;100.00
65190;BME280;51777;53.570;9.984;2023-06-22T07:38:55;101787.84;;;24.45;100.00
65190;BME280;51777;53.570;9.984;2023-06-22T07:41:20;101780.34;;;24.74;100.00
65190;BME280;51777;53.570;9.984;2023-06-22T07:43:46;101786.97;;;25.14;100.00
65190;BME280;51777;53.570;9.984;2023-06-22T07:46:11;101788.91;;;25.26;100.00
65190;BME280;51777;53.570;9.984;2023-06-22T07:48:37;101785.94;;;25.40;100.00
65190;BME280;51777;53.570;9.984;2023-06-22T07:51:03;101795.34;;;25.36;100.00
65190;BME280;51777;53.570;9.984;2023-06-22T07:53:28;101790.34;;;25.71;100.00
65190;BME280;51777;53.570;9.984;2023-06-22T07:55:54;101795.16;;;25.56;100.00
65190;BME280;51777;53.570;9.984;2023-06-22T07:58:19;101802.72;;;25.96;100.00
65190;BME280;51777;53.570;9.984;2023-06-22T08:00:46;101798.88;;;26.10;100.00
65190;BME280;51777;53.570;9.984;2023-06-22T08:03:12;101798.41;;;26.13;100.00
65190;BME280;51777;53.570;9.984;2023-06-22T08:05:37;101798.56;;;26.00;100.00
65190;BME280;51777;53.570;9.984;2023-06-22T08:08:03;101795.78;;;25.76;100.00
65190;BME280;51777;53.570;9.984;2023-06-22T08:10:29;101797.81;;;25.56;100.00
65190;BME280;51777;53.570;9.984;2023-06-22T08:12:54;101796.75;;;26.00;100.00
65190;BME280;51777;53.570;9.984;2023-06-22T08:15:20;101795.59;;;26.26;100.00
65190;BME280;51777;53.570;9.984;2023-06-22T08:17:47;101795.97;;;26.30;100.00
65190;BME280;51777;53.570;9.984;2023-06-22T08:20:12;101792.53;;;26.11;100.00
65190;BME280;51777;53.570;9.984;2023-06-22T08:22:39;101801.69;;;27.17;100.00
65190;BME280;51777;53.570;9.984;2023-06-22T08:25:05;101807.41;;;28.36;100.00
65190;BME280;51777;53.570;9.984;2023-06-22T08:27:31;101810.94;;;30.95;100.00
65190;BME280;51777;53.570;9.984;2023-06-22T08:29:58;101810.13;;;31.27;100.00
65190;BME280;51777;53.570;9.984;2023-06-22T08:32:25;101806.13;;;30.97;100.00
65190;BME280;51777;53.570;9.984;2023-06-22T08:34:52;101812.75;;;32.37;100.00
65190;BME280;51777;53.570;9.984;2023-06-22T08:37:18;101813.69;;;33.73;100.00
65190;BME280;51777;53.570;9.984;2023-06-22T08:39:44;101816.94;;;33.70;100.00
65190;BME280;51777;53.570;9.984;2023-06-22T08:42:09;101824.63;;;34.81;99.26
65190;BME280;51777;53.570;9.984;2023-06-22T08:44:34;101825.59;;;35.24;98.62
65190;BME280;51777;53.570;9.984;2023-06-22T08:47:00;101827.03;;;35.88;97.94
65190;BME280;51777;53.570;9.984;2023-06-22T08:49:25;101820.09;;;36.57;98.03
65190;BME280;51777;53.570;9.984;2023-06-22T08:51:50;101820.88;;;36.25;96.99
65190;BME280;51777;53.570;9.984;2023-06-22T08:54:18;101817.59;;;35.67;97.73
65190;BME280;51777;53.570;9.984;2023-06-22T08:56:43;101805.94;;;35.95;97.49
65190;BME280;51777;53.570;9.984;2023-06-22T08:59:09;101804.69;;;36.25;97.22
65190;BME280;51777;53.570;9.984;2023-06-22T09:01:34;101792.91;;;35.59;97.64
65190;BME280;51777;53.570;9.984;2023-06-22T09:04:00;101806.50;;;36.30;97.20
65190;BME280;51777;53.570;9.984;2023-06-22T09:06:25;101805.81;;;37.49;96.78
65190;BME280;51777;53.570;9.984;2023-06-22T09:08:51;101811.19;;;38.13;95.63
65190;BME280;51777;53.570;9.984;2023-06-22T09:11:16;101806.84;;;37.89;95.81
65190;BME280;51777;53.570;9.984;2023-06-22T09:13:42;101809.16;;;39.17;94.65
65190;BME280;51777;53.570;9.984;2023-06-22T09:16:07;101806.94;;;39.19;94.18
65190;BME280;51777;53.570;9.984;2023-06-22T09:18:39;101802.88;;;38.99;93.33
65190;BME280;51777;53.570;9.984;2023-06-22T09:21:04;101793.13;;;38.89;94.24
65190;BME280;51777;53.570;9.984;2023-06-22T09:23:30;101798.38;;;38.41;94.62
65190;BME280;51777;53.570;9.984;2023-06-22T09:25:55;101797.25;;;39.26;94.13
65190;BME280;51777;53.570;9.984;2023-06-22T09:28:20;101789.00;;;38.38;94.49
65190;BME280;51777;53.570;9.984;2023-06-22T09:30:49;101784.19;;;37.63;94.88
65190;BME280;51777;53.570;9.984;2023-06-22T09:33:14;101776.22;;;36.70;96.08
65190;BME280;51777;53.570;9.984;2023-06-22T09:35:40;101779.84;;;37.89;95.74
65190;BME280;51777;53.570;9.984;2023-06-22T09:38:05;101767.19;;;37.08;95.88
65190;BME280;51777;53.570;9.984;2023-06-22T09:40:31;101763.63;;;36.98;96.65
65190;BME280;51777;53.570;9.984;2023-06-22T09:43:00;101764.75;;;37.88;95.64
65190;BME280;51777;53.570;9.984;2023-06-22T09:45:26;101768.09;;;38.08;95.10
65190;BME280;51777;53.570;9.984;2023-06-22T09:47:51;101755.75;;;36.69;95.63
65190;BME280;51777;53.570;9.984;2023-06-22T09:50:16;101762.19;;;37.56;95.71
65190;BME280;51777;53.570;9.984;2023-06-22T09:52:42;101757.28;;;38.08;94.95
65190;BME280;51777;53.570;9.984;2023-06-22T09:55:09;101766.53;;;37.93;95.27
65190;BME280;51777;53.570;9.984;2023-06-22T09:57:35;101771.56;;;38.22;95.02
65190;BME280;51777;53.570;9.984;2023-06-22T10:00:00;101765.88;;;38.55;94.49
65190;BME280;51777;53.570;9.984;2023-06-22T10:02:26;101755.13;;;38.18;94.80
65190;BME280;51777;53.570;9.984;2023-06-22T10:04:51;101756.91;;;38.01;94.55
65190;BME280;51777;53.570;9.984;2023-06-22T10:07:17;101743.72;;;36.34;96.20
65190;BME280;51777;53.570;9.984;2023-06-22T10:09:42;101745.97;;;37.33;96.05
65190;BME280;51777;53.570;9.984;2023-06-22T10:12:08;101751.22;;;37.25;95.46
65190;BME280;51777;53.570;9.984;2023-06-22T10:14:33;101749.66;;;37.10;95.38
65190;BME280;51777;53.570;9.984;2023-06-22T10:16:58;101743.47;;;36.63;95.42
65190;BME280;51777;53.570;9.984;2023-06-22T10:19:24;101740.75;;;37.23;95.67
65190;BME280;51777;53.570;9.984;2023-06-22T10:21:49;101735.78;;;37.80;95.12
65190;BME280;51777;53.570;9.984;2023-06-22T10:24:15;101739.97;;;38.31;95.00
65190;BME280;51777;53.570;9.984;2023-06-22T10:26:40;101734.75;;;36.39;96.28
65190;BME280;51777;53.570;9.984;2023-06-22T10:29:05;101727.63;;;36.10;97.38
65190;BME280;51777;53.570;9.984;2023-06-22T10:31:31;101733.44;;;36.83;96.37
65190;BME280;51777;53.570;9.984;2023-06-22T10:33:56;101727.38;;;36.58;96.85
65190;BME280;51777;53.570;9.984;2023-06-22T10:36:22;101712.03;;;35.70;97.76
65190;BME280;51777;53.570;9.984;2023-06-22T10:38:48;101715.31;;;35.67;98.10
65190;BME280;51777;53.570;9.984;2023-06-22T10:41:14;101709.66;;;34.72;98.73
65190;BME280;51777;53.570;9.984;2023-06-22T10:43:40;101708.13;;;36.32;97.66
65190;BME280;51777;53.570;9.984;2023-06-22T10:46:06;101706.50;;;37.10;96.42
65190;BME280;51777;53.570;9.984;2023-06-22T10:48:32;101701.78;;;36.88;96.78
65190;BME280;51777;53.570;9.984;2023-06-22T10:50:58;101695.78;;;37.05;96.68
65190;BME280;51777;53.570;9.984;2023-06-22T10:53:24;101703.50;;;36.84;96.78
65190;BME280;51777;53.570;9.984;2023-06-22T10:55:49;101701.22;;;34.89;98.62
65190;BME280;51777;53.570;9.984;2023-06-22T10:58:17;101694.34;;;35.87;98.14
65190;BME280;51777;53.570;9.984;2023-06-22T11:00:42;101693.22;;;36.21;97.22
65190;BME280;51777;53.570;9.984;2023-06-22T11:03:08;101692.53;;;36.15;97.53
65190;BME280;51777;53.570;9.984;2023-06-22T11:05:33;101683.28;;;35.89;98.34
65190;BME280;51777;53.570;9.984;2023-06-22T11:07:59;101685.81;;;35.62;99.02
65190;BME280;51777;53.570;9.984;2023-06-22T11:10:24;101686.25;;;36.53;97.37
65190;BME280;51777;53.570;9.984;2023-06-22T11:12:49;101681.06;;;36.42;97.45
65190;BME280;51777;53.570;9.984;2023-06-22T11:15:15;101673.09;;;35.86;98.21
65190;BME280;51777;53.570;9.984;2023-06-22T11:17:40;101679.50;;;36.23;97.82
65190;BME280;51777;53.570;9.984;2023-06-22T11:20:06;101678.56;;;36.46;97.82
65190;BME280;51777;53.570;9.984;2023-06-22T11:22:40;101673.34;;;36.03;98.00
65190;BME280;51777;53.570;9.984;2023-06-22T11:25:06;101664.25;;;35.43;98.85
65190;BME280;51777;53.570;9.984;2023-06-22T11:27:31;101662.69;;;34.70;99.31
65190;BME280;51777;53.570;9.984;2023-06-22T11:29:57;101651.38;;;33.21;100.00
65190;BME280;51777;53.570;9.984;2023-06-22T11:32:23;101650.75;;;33.50;100.00
65190;BME280;51777;53.570;9.984;2023-06-22T11:34:48;101654.19;;;32.70;100.00
65190;BME280;51777;53.570;9.984;2023-06-22T11:37:13;101654.25;;;32.35;100.00
65190;BME280;51777;53.570;9.984;2023-06-22T11:39:39;101653.72;;;32.53;100.00
65190;BME280;51777;53.570;9.984;2023-06-22T11:42:05;101652.06;;;32.83;100.00
65190;BME280;51777;53.570;9.984;2023-06-22T11:44:30;101644.84;;;32.58;100.00
65190;BME280;51777;53.570;9.984;2023-06-22T11:46:56;101637.63;;;31.97;100.00
65190;BME280;51777;53.570;9.984;2023-06-22T11:49:21;101633.59;;;31.84;100.00
65190;BME280;51777;53.570;9.984;2023-06-22T11:51:47;101636.56;;;31.98;100.00
65190;BME280;51777;53.570;9.984;2023-06-22T11:54:12;101632.56;;;32.26;100.00
65190;BME280;51777;53.570;9.984;2023-06-22T11:56:37;101621.72;;;30.77;100.00
65190;BME280;51777;53.570;9.984;2023-06-22T11:59:03;101620.25;;;31.07;100.00
65190;BME280;51777;53.570;9.984;2023-06-22T12:01:28;101618.50;;;30.75;100.00
65190;BME280;51777;53.570;9.984;2023-06-22T12:03:54;101609.94;;;30.36;100.00
65190;BME280;51777;53.570;9.984;2023-06-22T12:06:21;101608.34;;;30.35;100.00
65190;BME280;51777;53.570;9.984;2023-06-22T12:08:46;101603.81;;;30.35;100.00
65190;BME280;51777;53.570;9.984;2023-06-22T12:11:12;101601.44;;;30.39;100.00
65190;BME280;51777;53.570;9.984;2023-06-22T12:13:38;101594.22;;;29.75;100.00
65190;BME280;51777;53.570;9.984;2023-06-22T12:16:03;101596.47;;;30.16;100.00
65190;BME280;51777;53.570;9.984;2023-06-22T12:18:29;101586.72;;;30.31;100.00
65190;BME280;51777;53.570;9.984;2023-06-22T12:20:54;101583.19;;;30.26;100.00
65190;BME280;51777;53.570;9.984;2023-06-22T12:23:20;101583.59;;;30.50;100.00
65190;BME280;51777;53.570;9.984;2023-06-22T12:25:45;101587.25;;;30.76;100.00
65190;BME280;51777;53.570;9.984;2023-06-22T12:28:11;101579.91;;;31.08;100.00
65190;BME280;51777;53.570;9.984;2023-06-22T12:30:36;101583.22;;;31.31;100.00
65190;BME280;51777;53.570;9.984;2023-06-22T12:33:02;101576.97;;;31.10;100.00
65190;BME280;51777;53.570;9.984;2023-06-22T12:35:27;101575.38;;;30.14;100.00
65190;BME280;51777;53.570;9.984;2023-06-22T12:37:53;101565.28;;;29.89;100.00
65190;BME280;51777;53.570;9.984;2023-06-22T12:40:18;101570.81;;;30.09;100.00
65190;BME280;51777;53.570;9.984;2023-06-22T12:42:45;101567.41;;;30.19;100.00
65190;BME280;51777;53.570;9.984;2023-06-22T12:45:10;101563.06;;;30.50;100.00